sensor_id;sensor_type;location;lat;lon;timestamp;pressure;altitude;pressure_sealevel;temperature;humidity
23318;BME280;11831;55.918;37.746;2023-04-27T00:00:50;98608.00;;;11.68;0.00
23318;BME280;11831;55.918;37.746;2023-04-27T00:03:16;98607.19;;;11.68;0.00
23318;BME280;11831;55.918;37.746;2023-04-27T00:05:42;98608.91;;;11.79;0.00
23318;BME280;11831;55.918;37.746;2023-04-27T00:08:08;98607.44;;;11.66;0.00
23318;BME280;11831;55.918;37.746;2023-04-27T00:10:34;98608.34;;;11.77;0.00
23318;BME280;11831;55.918;37.746;2023-04-27T00:13:01;98604.63;;;11.78;0.00
23318;BME280;11831;55.918;37.746;2023-04-27T00:15:27;98612.94;;;11.81;0.00
23318;BME280;11831;55.918;37.746;2023-04-27T00:17:53;98613.41;;;11.73;0.00
23318;BME280;11831;55.918;37.746;2023-04-27T00:20:19;98607.22;;;11.73;0.00
23318;BME280;11831;55.918;37.746;2023-04-27T00:22:46;98619.44;;;11.91;0.00
23318;BME280;11831;55.918;37.746;2023-04-27T00:25:12;98613.94;;;11.75;0.00
23318;BME280;11831;55.918;37.746;2023-04-27T00:27:38;98615.91;;;11.85;0.00
23318;BME280;11831;55.918;37.746;2023-04-27T00:30:04;98623.41;;;11.83;0.00
23318;BME280;11831;55.918;37.746;2023-04-27T00:32:32;98623.38;;;11.78;0.00
23318;BME280;11831;55.918;37.746;2023-04-27T00:34:58;98618.03;;;11.83;0.00
23318;BME280;11831;55.918;37.746;2023-04-27T00:37:24;98619.84;;;11.77;0.00
23318;BME280;11831;55.918;37.746;2023-04-27T00:39:50;98619.94;;;11.88;0.00
23318;BME280;11831;55.918;37.746;2023-04-27T00:42:16;98619.00;;;11.72;0.00
23318;BME280;11831;55.918;37.746;2023-04-27T00:44:45;98623.38;;;11.78;0.00
23318;BME280;11831;55.918;37.746;2023-04-27T00:47:11;98626.84;;;11.78;0.00
23318;BME280;11831;55.918;37.746;2023-04-27T00:49:37;98627.69;;;11.84;0.00
23318;BME280;11831;55.918;37.746;2023-04-27T00:52:04;98630.00;;;11.75;0.00
23318;BME280;11831;55.918;37.746;2023-04-27T00:54:31;98633.84;;;11.85;0.00
23318;BME280;11831;55.918;37.746;2023-04-27T00:56:57;98636.69;;;11.73;0.00
23318;BME280;11831;55.918;37.746;2023-04-27T00:59:24;98639.88;;;11.70;0.00
23318;BME280;11831;55.918;37.746;2023-04-27T01:01:50;98629.19;;;11.75;0.00
23318;BME280;11831;55.918;37.746;2023-04-27T01:04:17;98636.34;;;11.64;0.00
23318;BME280;11831;55.918;37.746;2023-04-27T01:06:44;98646.63;;;11.77;0.00
23318;BME280;11831;55.918;37.746;2023-04-27T01:09:10;98645.22;;;11.70;0.00
23318;BME280;11831;55.918;37.746;2023-04-27T01:11:36;98639.50;;;11.88;0.00
23318;BME280;11831;55.918;37.746;2023-04-27T01:14:03;98640.78;;;11.80;0.00
23318;BME280;11831;55.918;37.746;2023-04-27T01:16:30;98635.00;;;11.94;0.00
23318;BME280;11831;55.918;37.746;2023-04-27T01:18:57;98637.75;;;11.99;0.00
23318;BME280;11831;55.918;37.746;2023-04-27T01:21:23;98640.31;;;11.89;0.00
23318;BME280;11831;55.918;37.746;2023-04-27T01:23:51;98637.78;;;11.77;0.00
23318;BME280;11831;55.918;37.746;2023-04-27T01:26:17;98649.47;;;11.66;0.00
23318;BME280;11831;55.918;37.746;2023-04-27T01:28:43;98644.69;;;11.68;0.00
23318;BME280;11831;55.918;37.746;2023-04-27T01:31:09;98635.38;;;11.75;0.00
23318;BME280;11831;55.918;37.746;2023-04-27T01:33:40;98639.53;;;11.93;0.00
23318;BME280;11831;55.918;37.746;2023-04-27T01:36:06;98631.31;;;12.00;0.00
23318;BME280;11831;55.918;37.746;2023-04-27T01:38:33;98635.31;;;11.97;0.00
23318;BME280;11831;55.918;37.746;2023-04-27T01:40:59;98634.78;;;11.95;0.00
23318;BME280;11831;55.918;37.746;2023-04-27T01:43:29;98630.78;;;11.98;0.00
23318;BME280;11831;55.918;37.746;2023-04-27T01:45:56;98635.06;;;11.99;0.00
23318;BME280;11831;55.918;37.746;2023-04-27T01:48:29;98632.00;;;11.85;0.00
23318;BME280;11831;55.918;37.746;2023-04-27T01:50:55;98629.91;;;11.92;0.00
23318;BME280;11831;55.918;37.746;2023-04-27T01:53:22;98624.59;;;11.97;0.00
23318;BME280;11831;55.918;37.746;2023-04-27T01:55:48;98625.22;;;12.09;0.00
23318;BME280;11831;55.918;37.746;2023-04-27T01:58:14;98623.53;;;11.98;0.00
23318;BME280;11831;55.918;37.746;2023-04-27T02:00:40;98626.22;;;11.98;0.00
23318;BME280;11831;55.918;37.746;2023-04-27T02:03:06;98632.13;;;12.00;0.00
23318;BME280;11831;55.918;37.746;2023-04-27T02:05:32;98637.47;;;12.00;0.00
23318;BME280;11831;55.918;37.746;2023-04-27T02:07:58;98641.12;;;11.89;0.00
23318;BME280;11831;55.918;37.746;2023-04-27T02:10:24;98640.75;;;12.07;0.00
23318;BME280;11831;55.918;37.746;2023-04-27T02:12:51;98651.69;;;12.38;0.00
23318;BME280;11831;55.918;37.746;2023-04-27T02:15:17;98650.44;;;12.13;0.00
23318;BME280;11831;55.918;37.746;2023-04-27T02:17:43;98650.25;;;12.25;0.00
23318;BME280;11831;55.918;37.746;2023-04-27T02:20:10;98649.06;;;12.53;0.00
23318;BME280;11831;55.918;37.746;2023-04-27T02:22:43;98653.63;;;12.53;0.00
23318;BME280;11831;55.918;37.746;2023-04-27T02:25:09;98653.81;;;12.36;0.00
23318;BME280;11831;55.918;37.746;2023-04-27T02:27:36;98660.50;;;12.33;0.00
23318;BME280;11831;55.918;37.746;2023-04-27T02:30:04;98659.87;;;11.89;0.00
23318;BME280;11831;55.918;37.746;2023-04-27T02:32:30;98659.53;;;12.12;0.00
23318;BME280;11831;55.918;37.746;2023-04-27T02:34:56;98659.03;;;12.16;0.00
23318;BME280;11831;55.918;37.746;2023-04-27T02:37:22;98667.75;;;12.38;0.00
23318;BME280;11831;55.918;37.746;2023-04-27T02:39:48;98662.47;;;12.53;0.00
23318;BME280;11831;55.918;37.746;2023-04-27T02:42:14;98654.97;;;12.50;0.00
23318;BME280;11831;55.918;37.746;2023-04-27T02:44:41;98667.34;;;12.56;0.00
23318;BME280;11831;55.918;37.746;2023-04-27T02:47:08;98670.75;;;12.47;0.00
23318;BME280;11831;55.918;37.746;2023-04-27T02:49:34;98660.97;;;12.67;0.00
23318;BME280;11831;55.918;37.746;2023-04-27T02:52:00;98665.56;;;12.72;0.00
23318;BME280;11831;55.918;37.746;2023-04-27T02:54:26;98668.94;;;13.10;0.00
23318;BME280;11831;55.918;37.746;2023-04-27T02:56:52;98666.00;;;13.11;0.00
23318;BME280;11831;55.918;37.746;2023-04-27T02:59:18;98670.75;;;12.94;0.00
23318;BME280;11831;55.918;37.746;2023-04-27T03:01:44;98674.28;;;12.99;0.00
23318;BME280;11831;55.918;37.746;2023-04-27T03:04:10;98681.19;;;13.48;0.00
23318;BME280;11831;55.918;37.746;2023-04-27T03:06:41;98683.91;;;13.73;0.00
23318;BME280;11831;55.918;37.746;2023-04-27T03:09:07;98684.19;;;13.77;0.00
23318;BME280;11831;55.918;37.746;2023-04-27T03:11:35;98686.59;;;13.63;0.00
23318;BME280;11831;55.918;37.746;2023-04-27T03:14:01;98691.69;;;13.64;0.00
23318;BME280;11831;55.918;37.746;2023-04-27T03:16:30;98689.84;;;13.90;0.00
23318;BME280;11831;55.918;37.746;2023-04-27T03:18:56;98690.66;;;13.91;0.00
23318;BME280;11831;55.918;37.746;2023-04-27T03:21:22;98685.56;;;13.99;0.00
23318;BME280;11831;55.918;37.746;2023-04-27T03:23:48;98683.41;;;14.02;0.00
23318;BME280;11831;55.918;37.746;2023-04-27T03:26:15;98687.09;;;13.55;0.00
23318;BME280;11831;55.918;37.746;2023-04-27T03:28:41;98691.94;;;13.48;0.00
23318;BME280;11831;55.918;37.746;2023-04-27T03:31:11;98704.28;;;13.49;0.00
23318;BME280;11831;55.918;37.746;2023-04-27T03:33:38;98698.69;;;13.76;0.00
23318;BME280;11831;55.918;37.746;2023-04-27T03:36:05;98701.12;;;14.03;0.00
23318;BME280;11831;55.918;37.746;2023-04-27T03:38:32;98718.06;;;13.93;0.00
23318;BME280;11831;55.918;37.746;2023-04-27T03:40:58;98718.28;;;13.61;0.00
23318;BME280;11831;55.918;37.746;2023-04-27T03:43:24;98721.22;;;13.64;0.00
23318;BME280;11831;55.918;37.746;2023-04-27T03:45:51;98725.72;;;13.39;0.00
23318;BME280;11831;55.918;37.746;2023-04-27T03:48:18;98723.97;;;13.80;0.00
23318;BME280;11831;55.918;37.746;2023-04-27T03:50:44;98718.88;;;14.04;0.00
23318;BME280;11831;55.918;37.746;2023-04-27T03:53:11;98723.44;;;14.03;0.00
23318;BME280;11831;55.918;37.746;2023-04-27T03:55:38;98737.19;;;13.19;0.00
23318;BME280;11831;55.918;37.746;2023-04-27T03:58:05;98732.31;;;13.83;0.00
23318;BME280;11831;55.918;37.746;2023-04-27T04:00:32;98730.47;;;14.09;0.00
23318;BME280;11831;55.918;37.746;2023-04-27T04:02:58;98724.56;;;14.53;0.00
23318;BME280;11831;55.918;37.746;2023-04-27T04:05:24;98728.56;;;14.60;0.00
23318;BME280;11831;55.918;37.746;2023-04-27T04:07:50;98724.31;;;14.49;0.00
23318;BME280;11831;55.918;37.746;2023-04-27T04:10:17;98729.38;;;14.76;0.00
23318;BME280;11831;55.918;37.746;2023-04-27T04:12:43;98729.03;;;14.98;0.00
23318;BME280;11831;55.918;37.746;2023-04-27T04:15:09;98724.16;;;15.10;0.00
23318;BME280;11831;55.918;37.746;2023-04-27T04:17:36;98725.44;;;15.33;0.00
23318;BME280;11831;55.918;37.746;2023-04-27T04:20:02;98728.44;;;15.16;0.00
23318;BME280;11831;55.918;37.746;2023-04-27T04:22:33;98721.81;;;14.88;0.00
23318;BME280;11831;55.918;37.746;2023-04-27T04:24:59;98729.00;;;15.13;0.00
23318;BME280;11831;55.918;37.746;2023-04-27T04:27:26;98734.03;;;15.40;0.00
23318;BME280;11831;55.918;37.746;2023-04-27T04:29:52;98738.31;;;15.41;0.00
23318;BME280;11831;55.918;37.746;2023-04-27T04:32:18;98746.00;;;15.04;0.00
23318;BME280;11831;55.918;37.746;2023-04-27T04:34:48;98743.34;;;14.83;0.00
23318;BME280;11831;55.918;37.746;2023-04-27T04:37:17;98739.28;;;14.96;0.00
23318;BME280;11831;55.918;37.746;2023-04-27T04:39:43;98743.59;;;15.02;0.00
23318;BME280;11831;55.918;37.746;2023-04-27T04:42:09;98743.28;;;15.09;0.00
23318;BME280;11831;55.918;37.746;2023-04-27T04:44:36;98750.84;;;15.07;0.00
23318;BME280;11831;55.918;37.746;2023-04-27T04:47:06;98740.59;;;15.14;0.00
23318;BME280;11831;55.918;37.746;2023-04-27T04:49:34;98734.78;;;15.61;0.00
23318;BME280;11831;55.918;37.746;2023-04-27T04:52:01;98739.09;;;15.47;0.00
23318;BME280;11831;55.918;37.746;2023-04-27T04:54:29;98738.56;;;15.50;0.00
23318;BME280;11831;55.918;37.746;2023-04-27T04:56:55;98730.19;;;15.62;0.00
23318;BME280;11831;55.918;37.746;2023-04-27T04:59:23;98733.13;;;15.60;0.00
23318;BME280;11831;55.918;37.746;2023-04-27T05:01:50;98741.25;;;15.50;0.00
23318;BME280;11831;55.918;37.746;2023-04-27T05:04:20;98744.28;;;15.33;0.00
23318;BME280;11831;55.918;37.746;2023-04-27T05:06:46;98739.84;;;15.68;0.00
23318;BME280;11831;55.918;37.746;2023-04-27T05:09:13;98742.16;;;15.84;0.00
23318;BME280;11831;55.918;37.746;2023-04-27T05:11:39;98744.63;;;15.81;0.00
23318;BME280;11831;55.918;37.746;2023-04-27T05:14:05;98739.97;;;15.92;0.00
23318;BME280;11831;55.918;37.746;2023-04-27T05:16:31;98746.62;;;16.04;0.00
23318;BME280;11831;55.918;37.746;2023-04-27T05:18:57;98745.59;;;16.00;0.00
23318;BME280;11831;55.918;37.746;2023-04-27T05:21:23;98749.53;;;16.13;0.00
23318;BME280;11831;55.918;37.746;2023-04-27T05:23:49;98749.25;;;16.14;0.00
23318;BME280;11831;55.918;37.746;2023-04-27T05:26:16;98746.88;;;16.42;0.00
23318;BME280;11831;55.918;37.746;2023-04-27T05:28:43;98748.94;;;16.55;0.00
23318;BME280;11831;55.918;37.746;2023-04-27T05:31:09;98752.91;;;16.63;0.00
23318;BME280;11831;55.918;37.746;2023-04-27T05:33:35;98755.06;;;16.32;0.00
23318;BME280;11831;55.918;37.746;2023-04-27T05:36:01;98748.59;;;16.67;0.00
23318;BME280;11831;55.918;37.746;2023-04-27T05:38:27;98747.97;;;16.75;0.00
23318;BME280;11831;55.918;37.746;2023-04-27T05:40:53;98747.50;;;16.68;0.00
23318;BME280;11831;55.918;37.746;2023-04-27T05:43:20;98741.53;;;16.71;0.00
23318;BME280;11831;55.918;37.746;2023-04-27T05:45:46;98747.31;;;16.88;0.00
23318;BME280;11831;55.918;37.746;2023-04-27T05:48:12;98743.87;;;17.06;0.00
23318;BME280;11831;55.918;37.746;2023-04-27T05:50:39;98750.28;;;17.11;0.00
23318;BME280;11831;55.918;37.746;2023-04-27T05:53:05;98743.06;;;17.30;0.00
23318;BME280;11831;55.918;37.746;2023-04-27T05:55:31;98743.13;;;17.25;0.00
23318;BME280;11831;55.918;37.746;2023-04-27T05:57:58;98740.88;;;17.32;0.00
23318;BME280;11831;55.918;37.746;2023-04-27T06:00:24;98740.81;;;17.37;0.00
23318;BME280;11831;55.918;37.746;2023-04-27T06:02:50;98741.16;;;17.54;0.00
23318;BME280;11831;55.918;37.746;2023-04-27T06:05:16;98743.03;;;17.54;0.00
23318;BME280;11831;55.918;37.746;2023-04-27T06:07:42;98744.44;;;17.51;0.00
23318;BME280;11831;55.918;37.746;2023-04-27T06:10:09;98740.19;;;17.64;0.00
23318;BME280;11831;55.918;37.746;2023-04-27T06:12:35;98738.56;;;17.68;0.00
23318;BME280;11831;55.918;37.746;2023-04-27T06:15:02;98739.75;;;17.81;0.00
23318;BME280;11831;55.918;37.746;2023-04-27T06:17:36;98739.28;;;17.92;0.00
23318;BME280;11831;55.918;37.746;2023-04-27T06:20:03;98739.06;;;17.70;0.00
23318;BME280;11831;55.918;37.746;2023-04-27T06:22:32;98737.31;;;17.98;0.00
23318;BME280;11831;55.918;37.746;2023-04-27T06:24:58;98741.19;;;18.11;0.00
23318;BME280;11831;55.918;37.746;2023-04-27T06:27:24;98740.53;;;18.51;0.00
23318;BME280;11831;55.918;37.746;2023-04-27T06:29:50;98745.03;;;18.75;0.00
23318;BME280;11831;55.918;37.746;2023-04-27T06:32:16;98739.66;;;18.56;0.00
23318;BME280;11831;55.918;37.746;2023-04-27T06:34:42;98734.81;;;18.85;0.00
23318;BME280;11831;55.918;37.746;2023-04-27T06:37:08;98745.06;;;18.88;0.00
23318;BME280;11831;55.918;37.746;2023-04-27T06:39:34;98747.69;;;18.61;0.00
23318;BME280;11831;55.918;37.746;2023-04-27T06:42:01;98750.75;;;18.73;0.00
23318;BME280;11831;55.918;37.746;2023-04-27T06:44:29;98757.34;;;18.67;0.00
23318;BME280;11831;55.918;37.746;2023-04-27T06:46:55;98749.09;;;19.05;0.00
23318;BME280;11831;55.918;37.746;2023-04-27T06:49:21;98747.69;;;19.07;0.00
23318;BME280;11831;55.918;37.746;2023-04-27T06:51:47;98753.28;;;18.97;0.00
23318;BME280;11831;55.918;37.746;2023-04-27T06:54:13;98756.53;;;19.40;0.00
23318;BME280;11831;55.918;37.746;2023-04-27T06:56:40;98751.03;;;19.32;0.00
23318;BME280;11831;55.918;37.746;2023-04-27T06:59:06;98749.63;;;19.34;0.00
23318;BME280;11831;55.918;37.746;2023-04-27T07:01:32;98766.66;;;19.48;0.00
23318;BME280;11831;55.918;37.746;2023-04-27T07:03:59;98759.44;;;19.71;0.00
23318;BME280;11831;55.918;37.746;2023-04-27T07:06:25;98764.06;;;19.43;0.00
23318;BME280;11831;55.918;37.746;2023-04-27T07:08:51;98763.44;;;19.19;0.00
23318;BME280;11831;55.918;37.746;2023-04-27T07:11:17;98771.19;;;19.67;0.00
23318;BME280;11831;55.918;37.746;2023-04-27T07:13:43;98753.31;;;19.38;0.00
23318;BME280;11831;55.918;37.746;2023-04-27T07:16:09;98762.22;;;18.98;0.00
23318;BME280;11831;55.918;37.746;2023-04-27T07:18:35;98759.22;;;19.13;0.00
23318;BME280;11831;55.918;37.746;2023-04-27T07:21:02;98759.50;;;18.98;0.00
23318;BME280;11831;55.918;37.746;2023-04-27T07:23:28;98759.53;;;19.39;0.00
23318;BME280;11831;55.918;37.746;2023-04-27T07:25:54;98755.88;;;18.75;0.00
23318;BME280;11831;55.918;37.746;2023-04-27T07:28:20;98764.72;;;18.61;0.00
23318;BME280;11831;55.918;37.746;2023-04-27T07:30:46;98759.75;;;19.01;0.00
23318;BME280;11831;55.918;37.746;2023-04-27T07:33:12;98762.53;;;19.51;0.00
23318;BME280;11831;55.918;37.746;2023-04-27T07:35:39;98763.97;;;19.62;0.00
23318;BME280;11831;55.918;37.746;2023-04-27T07:38:05;98758.00;;;19.88;0.00
23318;BME280;11831;55.918;37.746;2023-04-27T07:40:32;98769.88;;;19.78;0.00
23318;BME280;11831;55.918;37.746;2023-04-27T07:42:59;98773.53;;;19.60;0.00
23318;BME280;11831;55.918;37.746;2023-04-27T07:45:25;98778.44;;;19.58;0.00
23318;BME280;11831;55.918;37.746;2023-04-27T07:47:57;98775.28;;;19.78;0.00
23318;BME280;11831;55.918;37.746;2023-04-27T07:50:25;98778.66;;;19.61;0.00
23318;BME280;11831;55.918;37.746;2023-04-27T07:52:52;98772.34;;;20.02;0.00
23318;BME280;11831;55.918;37.746;2023-04-27T07:55:19;98774.69;;;20.53;0.00
23318;BME280;11831;55.918;37.746;2023-04-27T07:57:49;98785.06;;;20.51;0.00
23318;BME280;11831;55.918;37.746;2023-04-27T08:00:16;98776.25;;;20.76;0.00
23318;BME280;11831;55.918;37.746;2023-04-27T08:02:42;98780.31;;;20.57;0.00
23318;BME280;11831;55.918;37.746;2023-04-27T08:05:08;98776.16;;;20.59;0.00
23318;BME280;11831;55.918;37.746;2023-04-27T08:07:34;98771.31;;;21.41;0.00
23318;BME280;11831;55.918;37.746;2023-04-27T08:10:01;98776.66;;;21.63;0.00
23318;BME280;11831;55.918;37.746;2023-04-27T08:12:27;98773.81;;;20.66;0.00
23318;BME280;11831;55.918;37.746;2023-04-27T08:14:53;98782.31;;;20.73;0.00
23318;BME280;11831;55.918;37.746;2023-04-27T08:17:19;98782.66;;;20.81;0.00
23318;BME280;11831;55.918;37.746;2023-04-27T08:19:46;98779.06;;;21.16;0.00
23318;BME280;11831;55.918;37.746;2023-04-27T08:22:12;98785.94;;;20.91;0.00
23318;BME280;11831;55.918;37.746;2023-04-27T08:24:39;98787.47;;;20.53;0.00
23318;BME280;11831;55.918;37.746;2023-04-27T08:27:05;98774.84;;;21.41;0.00
23318;BME280;11831;55.918;37.746;2023-04-27T08:29:32;98773.87;;;21.06;0.00
23318;BME280;11831;55.918;37.746;2023-04-27T08:31:58;98769.94;;;21.60;0.00
23318;BME280;11831;55.918;37.746;2023-04-27T08:34:25;98772.78;;;21.47;0.00
23318;BME280;11831;55.918;37.746;2023-04-27T08:36:51;98770.00;;;21.86;0.00
23318;BME280;11831;55.918;37.746;2023-04-27T08:39:18;98769.94;;;21.69;0.00
23318;BME280;11831;55.918;37.746;2023-04-27T08:41:45;98769.91;;;22.17;0.00
23318;BME280;11831;55.918;37.746;2023-04-27T08:44:11;98766.75;;;21.58;0.00
23318;BME280;11831;55.918;37.746;2023-04-27T08:46:37;98772.13;;;22.33;0.00
23318;BME280;11831;55.918;37.746;2023-04-27T08:49:04;98772.97;;;21.50;0.00
23318;BME280;11831;55.918;37.746;2023-04-27T08:51:32;98763.22;;;21.49;0.00
23318;BME280;11831;55.918;37.746;2023-04-27T08:53:58;98764.38;;;21.74;0.00
23318;BME280;11831;55.918;37.746;2023-04-27T08:56:25;98771.75;;;20.94;0.00
23318;BME280;11831;55.918;37.746;2023-04-27T08:58:53;98773.06;;;21.05;0.00
23318;BME280;11831;55.918;37.746;2023-04-27T09:01:19;98772.34;;;21.22;0.00
23318;BME280;11831;55.918;37.746;2023-04-27T09:03:46;98766.81;;;21.27;0.00
23318;BME280;11831;55.918;37.746;2023-04-27T09:06:13;98769.88;;;21.12;0.00
23318;BME280;11831;55.918;37.746;2023-04-27T09:08:46;98772.53;;;20.95;0.00
23318;BME280;11831;55.918;37.746;2023-04-27T09:11:26;98760.44;;;21.41;0.00
23318;BME280;11831;55.918;37.746;2023-04-27T09:13:52;98754.91;;;21.63;0.00
23318;BME280;11831;55.918;37.746;2023-04-27T09:16:22;98774.00;;;21.01;0.00
23318;BME280;11831;55.918;37.746;2023-04-27T09:18:48;98768.19;;;21.16;0.00
23318;BME280;11831;55.918;37.746;2023-04-27T09:23:49;98751.09;;;21.90;0.00
23318;BME280;11831;55.918;37.746;2023-04-27T09:26:19;98751.94;;;22.42;0.00
23318;BME280;11831;55.918;37.746;2023-04-27T09:28:49;98762.16;;;22.71;0.00
23318;BME280;11831;55.918;37.746;2023-04-27T09:31:16;98757.84;;;22.01;0.00
23318;BME280;11831;55.918;37.746;2023-04-27T09:33:43;98761.56;;;22.05;0.00
23318;BME280;11831;55.918;37.746;2023-04-27T09:36:09;98760.44;;;22.23;0.00
23318;BME280;11831;55.918;37.746;2023-04-27T09:38:35;98757.38;;;22.25;0.00
23318;BME280;11831;55.918;37.746;2023-04-27T09:41:01;98754.31;;;22.52;0.00
23318;BME280;11831;55.918;37.746;2023-04-27T09:43:28;98753.22;;;22.19;0.00
23318;BME280;11831;55.918;37.746;2023-04-27T09:45:55;98754.31;;;22.70;0.00
23318;BME280;11831;55.918;37.746;2023-04-27T09:48:22;98769.03;;;21.99;0.00
23318;BME280;11831;55.918;37.746;2023-04-27T09:50:49;98756.13;;;22.05;0.00
23318;BME280;11831;55.918;37.746;2023-04-27T09:53:21;98753.53;;;22.43;0.00
23318;BME280;11831;55.918;37.746;2023-04-27T09:55:58;98755.16;;;22.18;0.00
23318;BME280;11831;55.918;37.746;2023-04-27T10:03:34;98746.84;;;23.05;0.00
23318;BME280;11831;55.918;37.746;2023-04-27T10:08:33;98766.94;;;21.88;0.00
23318;BME280;11831;55.918;37.746;2023-04-27T10:10:59;98758.16;;;21.99;0.00
23318;BME280;11831;55.918;37.746;2023-04-27T10:13:25;98754.94;;;21.80;0.00
23318;BME280;11831;55.918;37.746;2023-04-27T10:15:52;98752.66;;;21.65;0.00
23318;BME280;11831;55.918;37.746;2023-04-27T10:18:25;98755.59;;;21.94;0.00
23318;BME280;11831;55.918;37.746;2023-04-27T10:20:52;98749.38;;;22.20;0.00
23318;BME280;11831;55.918;37.746;2023-04-27T10:23:24;98756.28;;;22.43;0.00
23318;BME280;11831;55.918;37.746;2023-04-27T10:25:51;98746.34;;;22.13;0.00
23318;BME280;11831;55.918;37.746;2023-04-27T10:28:18;98746.00;;;22.49;0.00
23318;BME280;11831;55.918;37.746;2023-04-27T10:30:46;98739.78;;;22.14;0.00
23318;BME280;11831;55.918;37.746;2023-04-27T10:33:17;98743.09;;;21.85;0.00
23318;BME280;11831;55.918;37.746;2023-04-27T10:35:51;98735.25;;;21.83;0.00
23318;BME280;11831;55.918;37.746;2023-04-27T10:38:18;98737.19;;;21.91;0.00
23318;BME280;11831;55.918;37.746;2023-04-27T10:40:58;98736.91;;;22.36;0.00
23318;BME280;11831;55.918;37.746;2023-04-27T10:43:30;98738.13;;;21.95;0.00
23318;BME280;11831;55.918;37.746;2023-04-27T10:46:09;98737.38;;;22.04;0.00
23318;BME280;11831;55.918;37.746;2023-04-27T10:48:38;98753.66;;;21.78;0.00
23318;BME280;11831;55.918;37.746;2023-04-27T10:51:04;98744.66;;;21.60;0.00
23318;BME280;11831;55.918;37.746;2023-04-27T10:53:34;98743.41;;;21.75;0.00
23318;BME280;11831;55.918;37.746;2023-04-27T10:56:00;98738.78;;;21.92;0.00
23318;BME280;11831;55.918;37.746;2023-04-27T10:58:27;98747.44;;;21.77;0.00
23318;BME280;11831;55.918;37.746;2023-04-27T11:00:53;98740.50;;;21.71;0.00
23318;BME280;11831;55.918;37.746;2023-04-27T11:03:21;98748.59;;;22.11;0.00
23318;BME280;11831;55.918;37.746;2023-04-27T11:05:48;98738.31;;;21.99;0.00
23318;BME280;11831;55.918;37.746;2023-04-27T11:08:15;98738.94;;;21.87;0.00
23318;BME280;11831;55.918;37.746;2023-04-27T11:10:44;98734.75;;;21.64;0.00
23318;BME280;11831;55.918;37.746;2023-04-27T11:13:12;98739.59;;;21.84;0.00
23318;BME280;11831;55.918;37.746;2023-04-27T11:15:49;98736.50;;;21.60;0.00
23318;BME280;11831;55.918;37.746;2023-04-27T11:18:16;98748.50;;;21.59;0.00
23318;BME280;11831;55.918;37.746;2023-04-27T11:20:43;98754.69;;;21.11;0.00
23318;BME280;11831;55.918;37.746;2023-04-27T11:23:10;98751.31;;;21.36;0.00
23318;BME280;11831;55.918;37.746;2023-04-27T11:25:37;98747.38;;;21.51;0.00
23318;BME280;11831;55.918;37.746;2023-04-27T11:28:03;98741.50;;;21.92;0.00
23318;BME280;11831;55.918;37.746;2023-04-27T11:30:29;98740.38;;;22.02;0.00
23318;BME280;11831;55.918;37.746;2023-04-27T11:32:56;98745.91;;;21.45;0.00
23318;BME280;11831;55.918;37.746;2023-04-27T11:35:31;98765.75;;;21.46;0.00
23318;BME280;11831;55.918;37.746;2023-04-27T11:37:58;98751.59;;;22.00;0.00
23318;BME280;11831;55.918;37.746;2023-04-27T11:40:24;98745.66;;;21.90;0.00
23318;BME280;11831;55.918;37.746;2023-04-27T11:42:58;98759.06;;;21.52;0.00
23318;BME280;11831;55.918;37.746;2023-04-27T11:45:25;98760.91;;;22.34;0.00
23318;BME280;11831;55.918;37.746;2023-04-27T11:47:52;98753.84;;;22.68;0.00
23318;BME280;11831;55.918;37.746;2023-04-27T11:50:22;98761.72;;;22.17;0.00
23318;BME280;11831;55.918;37.746;2023-04-27T11:52:48;98771.16;;;22.46;0.00
23318;BME280;11831;55.918;37.746;2023-04-27T11:55:15;98763.91;;;21.89;0.00
23318;BME280;11831;55.918;37.746;2023-04-27T11:57:41;98764.47;;;21.43;0.00
23318;BME280;11831;55.918;37.746;2023-04-27T12:00:08;98780.50;;;21.22;0.00
23318;BME280;11831;55.918;37.746;2023-04-27T12:02:39;98779.00;;;22.47;0.00
23318;BME280;11831;55.918;37.746;2023-04-27T12:05:05;98768.88;;;22.82;0.00
23318;BME280;11831;55.918;37.746;2023-04-27T12:07:32;98765.56;;;22.25;0.00
23318;BME280;11831;55.918;37.746;2023-04-27T12:09:59;98773.25;;;22.31;0.00
23318;BME280;11831;55.918;37.746;2023-04-27T12:12:25;98767.63;;;23.65;0.00
23318;BME280;11831;55.918;37.746;2023-04-27T12:14:52;98771.38;;;23.43;0.00
23318;BME280;11831;55.918;37.746;2023-04-27T12:17:18;98759.94;;;23.49;0.00
23318;BME280;11831;55.918;37.746;2023-04-27T12:19:44;98768.44;;;22.46;0.00
23318;BME280;11831;55.918;37.746;2023-04-27T12:22:10;98770.16;;;21.98;0.00
23318;BME280;11831;55.918;37.746;2023-04-27T12:24:36;98781.28;;;22.37;0.00
23318;BME280;11831;55.918;37.746;2023-04-27T12:27:02;98768.28;;;22.08;0.00
23318;BME280;11831;55.918;37.746;2023-04-27T12:29:29;98783.03;;;22.41;0.00
23318;BME280;11831;55.918;37.746;2023-04-27T12:31:59;98768.06;;;22.65;0.00
23318;BME280;11831;55.918;37.746;2023-04-27T12:34:26;98785.59;;;22.38;0.00
23318;BME280;11831;55.918;37.746;2023-04-27T12:36:53;98768.25;;;23.32;0.00
23318;BME280;11831;55.918;37.746;2023-04-27T12:39:20;98779.66;;;22.44;0.00
23318;BME280;11831;55.918;37.746;2023-04-27T12:41:46;98771.03;;;23.15;0.00
23318;BME280;11831;55.918;37.746;2023-04-27T12:44:13;98766.72;;;25.34;0.00
23318;BME280;11831;55.918;37.746;2023-04-27T12:46:40;98769.34;;;25.19;0.00
23318;BME280;11831;55.918;37.746;2023-04-27T12:49:07;98763.94;;;25.10;0.00
23318;BME280;11831;55.918;37.746;2023-04-27T12:51:34;98763.63;;;25.36;0.00
23318;BME280;11831;55.918;37.746;2023-04-27T12:54:01;98763.28;;;26.39;0.00
23318;BME280;11831;55.918;37.746;2023-04-27T12:56:27;98766.59;;;25.31;0.00
23318;BME280;11831;55.918;37.746;2023-04-27T12:58:54;98761.94;;;27.36;0.00
23318;BME280;11831;55.918;37.746;2023-04-27T13:01:20;98758.75;;;27.65;0.00
23318;BME280;11831;55.918;37.746;2023-04-27T13:03:57;98758.25;;;27.79;0.00
23318;BME280;11831;55.918;37.746;2023-04-27T13:06:24;98753.63;;;27.64;0.00
23318;BME280;11831;55.918;37.746;2023-04-27T13:08:50;98757.06;;;29.91;0.00